Whites Store, New York
Current Conditions -  °F | °C
As of 4:53 AM on Thursday 23 Oct 2014 (Local Time) from KBGM Reporting Station
Overcast Overcast  
Wind Chill: 35°   Ceiling: 2100
Heat Index: 43°   Visibility: 10mi
Dew Point: 39°   Wind: 18mph
Humidity: 86%   Direction: 350°N
Pressure: 29.91"   Gusts: NA
Location:  42.5358°N, 75.3475°W
Report Text: KBGM 230853Z AUTO 35016KT 10SM OVC021 06/04 A2991 RMK AO2 SLP136 60000 T00610039 56009
Loading
Personal Weather Stations






























Interactive Weather Map
Tropical Storm Tracking
New forecast layout! Learn more

10-Day Weather Forecast

Advertisements
Track Severe Weather on mobile